Sunbeam, Idaho
Current Conditions -  °F | °C
As of 2:55 PM on Wednesday 22 Oct 2014 (Local Time) from KLLJ Reporting Station
Clear Clear  
Wind Chill: 51°   Ceiling: Unl
Heat Index: 51°   Visibility: 10mi
Dew Point: 32°   Wind: 3mph
Humidity: 48%   Direction: 140°SE
Pressure: 30.1"   Gusts: NA
Location:  44.3379°N, 114.824°W
Report Text: KLLJ 222055Z AUTO 14003KT 10SM CLR 11/00 A3010 RMK AO2 SLP187 T01060000 58017
Loading
Personal Weather Stations






























Interactive Weather Map
Tropical Storm Tracking
New forecast layout! Learn more

10-Day Weather Forecast

Advertisements
Track Severe Weather on mobile